sensor_id;sensor_type;location;lat;lon;timestamp;pressure;altitude;pressure_sealevel;temperature;humidity
62051;BME280;48008;51.204;6.766;2023-02-01T00:00:25;101577.75;;;5.44;100.00
62051;BME280;48008;51.204;6.766;2023-02-01T00:02:52;101577.75;;;5.44;100.00
62051;BME280;48008;51.204;6.766;2023-02-01T00:05:19;101579.84;;;5.39;100.00
62051;BME280;48008;51.204;6.766;2023-02-01T00:07:47;101583.63;;;5.35;100.00
62051;BME280;48008;51.204;6.766;2023-02-01T00:10:15;101579.34;;;5.47;100.00
62051;BME280;48008;51.204;6.766;2023-02-01T00:12:43;101578.78;;;5.42;100.00
62051;BME280;48008;51.204;6.766;2023-02-01T00:15:10;101581.72;;;5.37;100.00
62051;BME280;48008;51.204;6.766;2023-02-01T00:17:36;101572.97;;;5.36;100.00
62051;BME280;48008;51.204;6.766;2023-02-01T00:20:03;101569.59;;;5.34;100.00
62051;BME280;48008;51.204;6.766;2023-02-01T00:22:30;101566.41;;;5.29;100.00
62051;BME280;48008;51.204;6.766;2023-02-01T00:24:57;101555.59;;;5.34;100.00
62051;BME280;48008;51.204;6.766;2023-02-01T00:27:23;101549.00;;;5.41;100.00
62051;BME280;48008;51.204;6.766;2023-02-01T00:29:50;101552.69;;;5.38;100.00
62051;BME280;48008;51.204;6.766;2023-02-01T00:32:17;101554.25;;;5.41;100.00
62051;BME280;48008;51.204;6.766;2023-02-01T00:34:43;101553.34;;;5.42;100.00
62051;BME280;48008;51.204;6.766;2023-02-01T00:37:10;101539.22;;;5.43;100.00
62051;BME280;48008;51.204;6.766;2023-02-01T00:39:37;101548.34;;;5.37;100.00
62051;BME280;48008;51.204;6.766;2023-02-01T00:42:04;101558.59;;;5.42;100.00
62051;BME280;48008;51.204;6.766;2023-02-01T00:44:31;101556.16;;;5.39;100.00
62051;BME280;48008;51.204;6.766;2023-02-01T00:47:00;101545.31;;;5.44;100.00
62051;BME280;48008;51.204;6.766;2023-02-01T00:49:28;101545.22;;;5.45;100.00
62051;BME280;48008;51.204;6.766;2023-02-01T00:51:55;101526.56;;;5.35;100.00
62051;BME280;48008;51.204;6.766;2023-02-01T00:54:22;101520.84;;;5.29;100.00
62051;BME280;48008;51.204;6.766;2023-02-01T00:56:49;101524.13;;;5.32;100.00
62051;BME280;48008;51.204;6.766;2023-02-01T00:59:17;101503.28;;;5.29;99.42
62051;BME280;48008;51.204;6.766;2023-02-01T01:01:45;101502.44;;;5.29;98.25
62051;BME280;48008;51.204;6.766;2023-02-01T01:04:12;101510.66;;;5.24;98.26
62051;BME280;48008;51.204;6.766;2023-02-01T01:06:38;101527.81;;;5.30;97.77
62051;BME280;48008;51.204;6.766;2023-02-01T01:09:06;101521.69;;;5.29;95.76
62051;BME280;48008;51.204;6.766;2023-02-01T01:11:36;101519.69;;;5.33;94.01
62051;BME280;48008;51.204;6.766;2023-02-01T01:14:06;101532.44;;;5.26;93.73
62051;BME280;48008;51.204;6.766;2023-02-01T01:16:34;101530.84;;;5.24;94.35
62051;BME280;48008;51.204;6.766;2023-02-01T01:19:02;101536.00;;;5.25;93.87
62051;BME280;48008;51.204;6.766;2023-02-01T01:21:29;101536.00;;;5.25;92.17
62051;BME280;48008;51.204;6.766;2023-02-01T01:23:56;101544.34;;;5.32;93.24
62051;BME280;48008;51.204;6.766;2023-02-01T01:26:25;101542.75;;;5.29;91.74
62051;BME280;48008;51.204;6.766;2023-02-01T01:28:55;101536.88;;;5.26;91.36
62051;BME280;48008;51.204;6.766;2023-02-01T01:31:22;101548.88;;;5.30;89.67
62051;BME280;48008;51.204;6.766;2023-02-01T01:33:52;101552.94;;;5.21;88.81
62051;BME280;48008;51.204;6.766;2023-02-01T01:36:20;101548.41;;;5.23;88.61
62051;BME280;48008;51.204;6.766;2023-02-01T01:38:47;101558.28;;;5.19;88.67
62051;BME280;48008;51.204;6.766;2023-02-01T01:41:17;101549.56;;;5.19;88.18
62051;BME280;48008;51.204;6.766;2023-02-01T01:46:24;101559.34;;;5.17;88.42
62051;BME280;48008;51.204;6.766;2023-02-01T01:49:00;101555.34;;;4.97;89.09
62051;BME280;48008;51.204;6.766;2023-02-01T01:51:29;101559.56;;;4.99;88.32
62051;BME280;48008;51.204;6.766;2023-02-01T01:54:04;101557.50;;;5.05;88.22
62051;BME280;48008;51.204;6.766;2023-02-01T01:56:52;101526.13;;;5.02;87.88
62051;BME280;48008;51.204;6.766;2023-02-01T01:59:22;101529.63;;;5.02;88.31
62051;BME280;48008;51.204;6.766;2023-02-01T02:01:51;101533.38;;;4.98;88.06
62051;BME280;48008;51.204;6.766;2023-02-01T02:04:18;101519.56;;;4.94;88.44
62051;BME280;48008;51.204;6.766;2023-02-01T02:06:51;101516.94;;;4.94;88.01
62051;BME280;48008;51.204;6.766;2023-02-01T02:09:22;101523.06;;;4.95;88.68
62051;BME280;48008;51.204;6.766;2023-02-01T02:11:49;101518.00;;;4.92;89.42
62051;BME280;48008;51.204;6.766;2023-02-01T02:14:17;101507.38;;;4.93;89.09
62051;BME280;48008;51.204;6.766;2023-02-01T02:17:13;101510.09;;;4.92;88.54
62051;BME280;48008;51.204;6.766;2023-02-01T02:26:16;101517.84;;;4.80;88.39
62051;BME280;48008;51.204;6.766;2023-02-01T02:29:03;101506.75;;;4.75;88.42
62051;BME280;48008;51.204;6.766;2023-02-01T02:32:04;101515.13;;;4.82;88.45
62051;BME280;48008;51.204;6.766;2023-02-01T02:34:42;101508.25;;;4.79;88.19
62051;BME280;48008;51.204;6.766;2023-02-01T02:37:51;101504.88;;;4.77;88.11
62051;BME280;48008;51.204;6.766;2023-02-01T02:40:27;101498.72;;;4.64;88.85
62051;BME280;48008;51.204;6.766;2023-02-01T02:43:08;101492.72;;;4.62;88.81
62051;BME280;48008;51.204;6.766;2023-02-01T02:46:12;101484.19;;;4.58;88.71
62051;BME280;48008;51.204;6.766;2023-02-01T02:49:23;101485.47;;;4.66;88.52
62051;BME280;48008;51.204;6.766;2023-02-01T02:52:04;101483.88;;;4.63;88.14
62051;BME280;48008;51.204;6.766;2023-02-01T02:54:56;101476.31;;;4.58;88.66
62051;BME280;48008;51.204;6.766;2023-02-01T02:57:28;101482.22;;;4.62;88.88
62051;BME280;48008;51.204;6.766;2023-02-01T03:00:18;101480.03;;;4.54;89.23
62051;BME280;48008;51.204;6.766;2023-02-01T03:03:07;101488.69;;;4.56;89.33
62051;BME280;48008;51.204;6.766;2023-02-01T03:05:54;101482.88;;;4.51;89.27
62051;BME280;48008;51.204;6.766;2023-02-01T03:08:24;101490.88;;;4.50;89.46
62051;BME280;48008;51.204;6.766;2023-02-01T03:11:03;101481.75;;;4.55;89.37
62051;BME280;48008;51.204;6.766;2023-02-01T03:13:52;101500.41;;;4.51;90.17
62051;BME280;48008;51.204;6.766;2023-02-01T03:16:40;101478.47;;;4.52;90.25
62051;BME280;48008;51.204;6.766;2023-02-01T03:19:19;101480.78;;;4.56;90.72
62051;BME280;48008;51.204;6.766;2023-02-01T03:21:53;101479.13;;;4.55;90.63
62051;BME280;48008;51.204;6.766;2023-02-01T03:24:26;101481.56;;;4.58;90.68
62051;BME280;48008;51.204;6.766;2023-02-01T03:27:06;101484.28;;;4.57;91.09
62051;BME280;48008;51.204;6.766;2023-02-01T03:29:43;101470.00;;;4.61;91.10
62051;BME280;48008;51.204;6.766;2023-02-01T03:32:11;101473.28;;;4.65;91.15
62051;BME280;48008;51.204;6.766;2023-02-01T03:34:38;101466.31;;;4.64;91.47
62051;BME280;48008;51.204;6.766;2023-02-01T03:37:09;101473.63;;;4.73;90.51
62051;BME280;48008;51.204;6.766;2023-02-01T03:39:45;101459.72;;;4.71;89.99
62051;BME280;48008;51.204;6.766;2023-02-01T03:42:17;101455.78;;;4.78;89.88
62051;BME280;48008;51.204;6.766;2023-02-01T03:44:51;101460.84;;;4.81;89.29
62051;BME280;48008;51.204;6.766;2023-02-01T03:47:23;101438.28;;;4.91;88.16
62051;BME280;48008;51.204;6.766;2023-02-01T03:49:56;101454.78;;;4.93;87.78
62051;BME280;48008;51.204;6.766;2023-02-01T03:52:29;101450.19;;;4.97;87.06
62051;BME280;48008;51.204;6.766;2023-02-01T03:54:58;101455.22;;;5.00;87.83
62051;BME280;48008;51.204;6.766;2023-02-01T03:57:28;101451.34;;;5.06;87.12
62051;BME280;48008;51.204;6.766;2023-02-01T04:00:06;101475.78;;;5.08;87.54
62051;BME280;48008;51.204;6.766;2023-02-01T04:02:42;101465.03;;;5.11;86.38
62051;BME280;48008;51.204;6.766;2023-02-01T04:05:09;101466.63;;;5.13;85.87
62051;BME280;48008;51.204;6.766;2023-02-01T04:07:38;101444.44;;;5.17;86.61
62051;BME280;48008;51.204;6.766;2023-02-01T04:10:05;101439.28;;;5.16;86.57
62051;BME280;48008;51.204;6.766;2023-02-01T04:12:32;101441.63;;;5.21;86.60
62051;BME280;48008;51.204;6.766;2023-02-01T04:14:59;101442.22;;;5.11;87.24
62051;BME280;48008;51.204;6.766;2023-02-01T04:17:26;101439.69;;;5.10;86.71
62051;BME280;48008;51.204;6.766;2023-02-01T04:19:52;101437.81;;;5.12;86.82
62051;BME280;48008;51.204;6.766;2023-02-01T04:22:21;101426.75;;;5.07;87.38
62051;BME280;48008;51.204;6.766;2023-02-01T04:24:47;101419.16;;;5.02;87.69
62051;BME280;48008;51.204;6.766;2023-02-01T04:27:14;101389.38;;;5.02;87.89
62051;BME280;48008;51.204;6.766;2023-02-01T04:29:41;101390.09;;;4.91;88.71
62051;BME280;48008;51.204;6.766;2023-02-01T04:32:08;101404.84;;;4.93;88.09
62051;BME280;48008;51.204;6.766;2023-02-01T04:34:35;101402.09;;;4.95;88.63
62051;BME280;48008;51.204;6.766;2023-02-01T04:37:01;101398.38;;;4.85;88.21
62051;BME280;48008;51.204;6.766;2023-02-01T04:39:28;101397.44;;;4.86;88.39
62051;BME280;48008;51.204;6.766;2023-02-01T04:41:55;101412.38;;;4.85;88.82
62051;BME280;48008;51.204;6.766;2023-02-01T04:44:22;101429.75;;;4.88;89.01
62051;BME280;48008;51.204;6.766;2023-02-01T04:46:50;101424.78;;;4.83;88.75
62051;BME280;48008;51.204;6.766;2023-02-01T04:49:17;101417.63;;;4.85;88.76
62051;BME280;48008;51.204;6.766;2023-02-01T04:51:44;101416.88;;;4.83;89.11
62051;BME280;48008;51.204;6.766;2023-02-01T04:54:11;101439.63;;;4.84;88.81
62051;BME280;48008;51.204;6.766;2023-02-01T04:56:39;101439.25;;;4.76;89.42
62051;BME280;48008;51.204;6.766;2023-02-01T04:59:06;101439.56;;;4.71;89.48
62051;BME280;48008;51.204;6.766;2023-02-01T05:01:33;101429.16;;;4.70;89.95
62051;BME280;48008;51.204;6.766;2023-02-01T05:04:00;101436.94;;;4.71;89.39
62051;BME280;48008;51.204;6.766;2023-02-01T05:06:26;101434.97;;;4.75;89.28
62051;BME280;48008;51.204;6.766;2023-02-01T05:08:53;101444.31;;;4.79;88.88
62051;BME280;48008;51.204;6.766;2023-02-01T05:11:20;101444.59;;;4.74;88.96
62051;BME280;48008;51.204;6.766;2023-02-01T05:14:06;101439.03;;;4.66;89.75
62051;BME280;48008;51.204;6.766;2023-02-01T05:16:33;101439.94;;;4.65;89.68
62051;BME280;48008;51.204;6.766;2023-02-01T05:19:00;101438.28;;;4.64;89.49
62051;BME280;48008;51.204;6.766;2023-02-01T05:21:26;101435.09;;;4.59;89.07
62051;BME280;48008;51.204;6.766;2023-02-01T05:23:53;101435.19;;;4.57;90.04
62051;BME280;48008;51.204;6.766;2023-02-01T05:26:40;101437.34;;;4.51;90.06
62051;BME280;48008;51.204;6.766;2023-02-01T05:29:08;101445.41;;;4.62;89.74
62051;BME280;48008;51.204;6.766;2023-02-01T05:31:36;101447.41;;;4.58;90.01
62051;BME280;48008;51.204;6.766;2023-02-01T05:34:03;101446.53;;;4.58;90.17
62051;BME280;48008;51.204;6.766;2023-02-01T05:36:31;101450.69;;;4.62;89.38
62051;BME280;48008;51.204;6.766;2023-02-01T05:38:57;101450.88;;;4.59;89.73
62051;BME280;48008;51.204;6.766;2023-02-01T05:41:24;101447.19;;;4.61;89.42
62051;BME280;48008;51.204;6.766;2023-02-01T05:43:51;101446.81;;;4.68;89.50
62051;BME280;48008;51.204;6.766;2023-02-01T05:46:18;101441.56;;;4.68;89.42
62051;BME280;48008;51.204;6.766;2023-02-01T05:48:45;101450.88;;;4.59;89.26
62051;BME280;48008;51.204;6.766;2023-02-01T05:51:12;101443.56;;;4.50;90.37
62051;BME280;48008;51.204;6.766;2023-02-01T05:53:38;101441.22;;;4.45;90.19
62051;BME280;48008;51.204;6.766;2023-02-01T05:56:05;101436.28;;;4.40;90.64
62051;BME280;48008;51.204;6.766;2023-02-01T05:58:32;101437.00;;;4.42;90.23
62051;BME280;48008;51.204;6.766;2023-02-01T06:00:59;101442.44;;;4.39;90.79
62051;BME280;48008;51.204;6.766;2023-02-01T06:03:26;101432.13;;;4.36;90.94
62051;BME280;48008;51.204;6.766;2023-02-01T06:05:54;101431.66;;;4.44;90.37
62051;BME280;48008;51.204;6.766;2023-02-01T06:08:21;101432.69;;;4.41;90.62
62051;BME280;48008;51.204;6.766;2023-02-01T06:11:00;101422.56;;;4.50;90.16
62051;BME280;48008;51.204;6.766;2023-02-01T06:13:27;101420.28;;;4.43;89.96
62051;BME280;48008;51.204;6.766;2023-02-01T06:15:54;101429.78;;;4.46;90.11
62051;BME280;48008;51.204;6.766;2023-02-01T06:18:24;101454.91;;;4.50;89.78
62051;BME280;48008;51.204;6.766;2023-02-01T06:20:52;101447.78;;;4.52;90.07
62051;BME280;48008;51.204;6.766;2023-02-01T06:23:20;101451.69;;;4.59;90.19
62051;BME280;48008;51.204;6.766;2023-02-01T06:25:58;101456.03;;;4.60;89.51
62051;BME280;48008;51.204;6.766;2023-02-01T06:28:26;101458.34;;;4.65;89.06
62051;BME280;48008;51.204;6.766;2023-02-01T06:30:54;101448.78;;;4.64;89.33
62051;BME280;48008;51.204;6.766;2023-02-01T06:33:21;101453.38;;;4.75;88.64
62051;BME280;48008;51.204;6.766;2023-02-01T06:35:49;101473.53;;;4.74;88.76
62051;BME280;48008;51.204;6.766;2023-02-01T06:38:22;101454.47;;;4.71;89.34
62051;BME280;48008;51.204;6.766;2023-02-01T06:40:52;101462.81;;;4.77;88.99
62051;BME280;48008;51.204;6.766;2023-02-01T06:43:21;101464.53;;;4.78;88.99
62051;BME280;48008;51.204;6.766;2023-02-01T06:45:49;101459.50;;;4.88;88.75
62051;BME280;48008;51.204;6.766;2023-02-01T06:48:15;101466.56;;;4.88;88.81
62051;BME280;48008;51.204;6.766;2023-02-01T06:50:42;101442.44;;;4.81;88.84
62051;BME280;48008;51.204;6.766;2023-02-01T06:53:09;101442.13;;;4.86;88.49
62051;BME280;48008;51.204;6.766;2023-02-01T06:55:36;101446.63;;;4.84;88.21
62051;BME280;48008;51.204;6.766;2023-02-01T06:58:03;101455.91;;;4.89;87.62
62051;BME280;48008;51.204;6.766;2023-02-01T07:00:29;101458.13;;;4.83;88.55
62051;BME280;48008;51.204;6.766;2023-02-01T07:02:57;101449.13;;;4.99;88.50
62051;BME280;48008;51.204;6.766;2023-02-01T07:05:25;101463.06;;;4.87;88.62
62051;BME280;48008;51.204;6.766;2023-02-01T07:07:52;101465.84;;;4.98;88.11
62051;BME280;48008;51.204;6.766;2023-02-01T07:10:19;101464.56;;;4.91;88.45
62051;BME280;48008;51.204;6.766;2023-02-01T07:12:46;101457.53;;;4.92;88.14
62051;BME280;48008;51.204;6.766;2023-02-01T07:15:12;101464.56;;;4.91;88.27
62051;BME280;48008;51.204;6.766;2023-02-01T07:17:39;101478.09;;;4.85;88.68
62051;BME280;48008;51.204;6.766;2023-02-01T07:20:06;101478.84;;;4.87;88.82
62051;BME280;48008;51.204;6.766;2023-02-01T07:22:33;101476.84;;;4.91;88.79
62051;BME280;48008;51.204;6.766;2023-02-01T07:24:59;101479.19;;;4.95;89.06
62051;BME280;48008;51.204;6.766;2023-02-01T07:27:26;101489.72;;;4.95;88.52
62051;BME280;48008;51.204;6.766;2023-02-01T07:29:54;101477.31;;;4.97;88.34
62051;BME280;48008;51.204;6.766;2023-02-01T07:32:22;101478.88;;;5.00;88.32
62051;BME280;48008;51.204;6.766;2023-02-01T07:34:48;101478.88;;;5.00;87.86
62051;BME280;48008;51.204;6.766;2023-02-01T07:37:15;101481.69;;;5.11;87.92
62051;BME280;48008;51.204;6.766;2023-02-01T07:39:41;101482.38;;;5.00;88.27
62051;BME280;48008;51.204;6.766;2023-02-01T07:42:08;101473.44;;;5.03;88.43
62051;BME280;48008;51.204;6.766;2023-02-01T07:44:35;101481.28;;;5.30;88.62
62051;BME280;48008;51.204;6.766;2023-02-01T07:47:01;101490.97;;;5.30;86.12
62051;BME280;48008;51.204;6.766;2023-02-01T07:49:28;101480.22;;;5.20;87.41
62051;BME280;48008;51.204;6.766;2023-02-01T07:51:55;101488.75;;;5.24;87.20
62051;BME280;48008;51.204;6.766;2023-02-01T07:54:21;101487.06;;;5.23;87.21
62051;BME280;48008;51.204;6.766;2023-02-01T07:56:48;101501.25;;;5.20;86.99
62051;BME280;48008;51.204;6.766;2023-02-01T07:59:15;101483.69;;;5.21;87.32
62051;BME280;48008;51.204;6.766;2023-02-01T08:01:42;101481.47;;;5.14;87.02
62051;BME280;48008;51.204;6.766;2023-02-01T08:04:11;101497.34;;;5.13;87.61
62051;BME280;48008;51.204;6.766;2023-02-01T08:06:39;101500.38;;;5.07;88.04
62051;BME280;48008;51.204;6.766;2023-02-01T08:09:07;101497.94;;;5.04;87.82
62051;BME280;48008;51.204;6.766;2023-02-01T08:11:35;101491.56;;;5.08;87.99
62051;BME280;48008;51.204;6.766;2023-02-01T08:14:04;101499.63;;;5.05;87.51
62051;BME280;48008;51.204;6.766;2023-02-01T08:16:31;101482.91;;;5.06;87.93
62051;BME280;48008;51.204;6.766;2023-02-01T08:18:59;101497.09;;;5.30;87.03
62051;BME280;48008;51.204;6.766;2023-02-01T08:21:27;101493.09;;;5.37;87.36
62051;BME280;48008;51.204;6.766;2023-02-01T08:24:05;101497.53;;;5.37;86.67
62051;BME280;48008;51.204;6.766;2023-02-01T08:26:32;101493.09;;;5.37;86.52
62051;BME280;48008;51.204;6.766;2023-02-01T08:29:00;101516.44;;;5.29;86.69
62051;BME280;48008;51.204;6.766;2023-02-01T08:31:30;101513.47;;;5.21;86.79
62051;BME280;48008;51.204;6.766;2023-02-01T08:34:00;101511.69;;;5.22;87.44
62051;BME280;48008;51.204;6.766;2023-02-01T08:36:29;101524.81;;;5.22;87.38
62051;BME280;48008;51.204;6.766;2023-02-01T08:38:56;101531.53;;;5.13;87.75
62051;BME280;48008;51.204;6.766;2023-02-01T08:41:25;101534.63;;;5.19;87.76
62051;BME280;48008;51.204;6.766;2023-02-01T08:43:53;101539.22;;;5.16;87.92
62051;BME280;48008;51.204;6.766;2023-02-01T08:46:21;101533.03;;;5.17;88.05
62051;BME280;48008;51.204;6.766;2023-02-01T08:48:49;101552.19;;;5.19;88.44
62051;BME280;48008;51.204;6.766;2023-02-01T08:51:18;101565.34;;;5.19;87.85
62051;BME280;48008;51.204;6.766;2023-02-01T08:53:45;101545.44;;;5.15;87.80
62051;BME280;48008;51.204;6.766;2023-02-01T08:56:14;101552.84;;;5.23;87.91
62051;BME280;48008;51.204;6.766;2023-02-01T08:58:41;101544.75;;;5.26;87.24
62051;BME280;48008;51.204;6.766;2023-02-01T09:01:10;101539.78;;;5.21;88.12
62051;BME280;48008;51.204;6.766;2023-02-01T09:03:39;101528.75;;;5.29;87.29
62051;BME280;48008;51.204;6.766;2023-02-01T09:06:09;101533.13;;;5.43;86.74
62051;BME280;48008;51.204;6.766;2023-02-01T09:08:38;101548.44;;;5.36;86.80
62051;BME280;48008;51.204;6.766;2023-02-01T09:11:11;101537.84;;;5.37;86.71
62051;BME280;48008;51.204;6.766;2023-02-01T09:13:39;101538.06;;;5.47;86.60
62051;BME280;48008;51.204;6.766;2023-02-01T09:16:06;101525.41;;;5.39;85.66
62051;BME280;48008;51.204;6.766;2023-02-01T09:18:33;101527.31;;;5.37;86.39
62051;BME280;48008;51.204;6.766;2023-02-01T09:21:04;101525.50;;;5.38;86.06
62051;BME280;48008;51.204;6.766;2023-02-01T09:23:31;101551.41;;;5.31;86.02
62051;BME280;48008;51.204;6.766;2023-02-01T09:26:00;101517.28;;;5.30;86.31
62051;BME280;48008;51.204;6.766;2023-02-01T09:28:27;101519.50;;;5.36;86.43
62051;BME280;48008;51.204;6.766;2023-02-01T09:30:56;101521.63;;;5.44;86.28
62051;BME280;48008;51.204;6.766;2023-02-01T09:33:24;101526.78;;;5.45;85.90
62051;BME280;48008;51.204;6.766;2023-02-01T09:35:56;101516.50;;;5.42;86.53
62051;BME280;48008;51.204;6.766;2023-02-01T09:38:23;101516.06;;;5.48;86.23
62051;BME280;48008;51.204;6.766;2023-02-01T09:40:51;101512.38;;;5.51;86.44
62051;BME280;48008;51.204;6.766;2023-02-01T09:48:58;101505.84;;;5.44;86.12
62051;BME280;48008;51.204;6.766;2023-02-01T09:51:32;101512.25;;;5.39;86.95
62051;BME280;48008;51.204;6.766;2023-02-01T09:54:05;101507.09;;;5.38;87.71
62051;BME280;48008;51.204;6.766;2023-02-01T09:56:38;101519.50;;;5.36;86.91
62051;BME280;48008;51.204;6.766;2023-02-01T09:59:38;101509.97;;;5.48;86.58
62051;BME280;48008;51.204;6.766;2023-02-01T10:02:19;101509.34;;;5.44;86.81
62051;BME280;48008;51.204;6.766;2023-02-01T10:04:47;101504.56;;;5.36;86.89
62051;BME280;48008;51.204;6.766;2023-02-01T10:07:26;101507.09;;;5.38;87.32
62051;BME280;48008;51.204;6.766;2023-02-01T10:12:57;101505.53;;;5.48;87.10
62051;BME280;48008;51.204;6.766;2023-02-01T10:18:48;101509.03;;;5.62;87.56
62051;BME280;48008;51.204;6.766;2023-02-01T10:21:49;101504.47;;;5.51;86.70
62051;BME280;48008;51.204;6.766;2023-02-01T10:24:40;101494.41;;;5.70;86.95
62051;BME280;48008;51.204;6.766;2023-02-01T10:27:29;101508.22;;;5.74;86.39
62051;BME280;48008;51.204;6.766;2023-02-01T10:30:03;101489.78;;;5.87;85.30
62051;BME280;48008;51.204;6.766;2023-02-01T10:32:32;101497.09;;;5.96;84.86
62051;BME280;48008;51.204;6.766;2023-02-01T10:35:03;101497.50;;;5.90;85.02
62051;BME280;48008;51.204;6.766;2023-02-01T10:37:35;101491.59;;;5.86;85.80
62051;BME280;48008;51.204;6.766;2023-02-01T10:40:15;101495.72;;;6.03;84.62
62051;BME280;48008;51.204;6.766;2023-02-01T10:42:43;101488.53;;;5.92;84.32
62051;BME280;48008;51.204;6.766;2023-02-01T10:45:14;101491.41;;;6.02;84.27
62051;BME280;48008;51.204;6.766;2023-02-01T10:47:42;101502.69;;;6.04;83.54
62051;BME280;48008;51.204;6.766;2023-02-01T10:50:17;101502.78;;;6.03;83.16
62051;BME280;48008;51.204;6.766;2023-02-01T10:52:53;101498.03;;;5.95;83.76
62051;BME280;48008;51.204;6.766;2023-02-01T10:55:34;101483.78;;;5.85;83.89
62051;BME280;48008;51.204;6.766;2023-02-01T10:58:10;101501.19;;;6.00;84.76
62051;BME280;48008;51.204;6.766;2023-02-01T11:01:02;101503.09;;;5.98;84.94
62051;BME280;48008;51.204;6.766;2023-02-01T11:03:41;101496.41;;;5.92;85.22
62051;BME280;48008;51.204;6.766;2023-02-01T11:06:27;101480.53;;;5.94;85.68
62051;BME280;48008;51.204;6.766;2023-02-01T11:09:01;101488.78;;;6.02;84.03
62051;BME280;48008;51.204;6.766;2023-02-01T11:11:56;101488.25;;;5.97;82.42
62051;BME280;48008;51.204;6.766;2023-02-01T11:14:32;101488.78;;;6.02;81.85
62051;BME280;48008;51.204;6.766;2023-02-01T11:17:15;101485.72;;;6.08;82.44
62051;BME280;48008;51.204;6.766;2023-02-01T11:19:46;101472.75;;;6.05;82.57
62051;BME280;48008;51.204;6.766;2023-02-01T11:22:14;101474.44;;;6.06;83.31
62051;BME280;48008;51.204;6.766;2023-02-01T11:24:44;101484.00;;;6.07;83.21
62051;BME280;48008;51.204;6.766;2023-02-01T11:27:16;101466.53;;;6.06;82.64
62051;BME280;48008;51.204;6.766;2023-02-01T11:29:55;101452.72;;;6.15;81.91
62051;BME280;48008;51.204;6.766;2023-02-01T11:32:26;101463.88;;;6.19;81.21
62051;BME280;48008;51.204;6.766;2023-02-01T11:34:57;101447.53;;;6.27;81.35
62051;BME280;48008;51.204;6.766;2023-02-01T11:37:30;101452.78;;;6.27;80.82
62051;BME280;48008;51.204;6.766;2023-02-01T11:39:58;101455.94;;;6.32;80.56
62051;BME280;48008;51.204;6.766;2023-02-01T11:42:26;101449.72;;;6.33;79.30
62051;BME280;48008;51.204;6.766;2023-02-01T11:45:24;101439.69;;;6.38;79.17
62051;BME280;48008;51.204;6.766;2023-02-01T11:47:53;101444.75;;;6.41;78.43
62051;BME280;48008;51.204;6.766;2023-02-01T11:50:31;101444.31;;;6.47;78.41
62051;BME280;48008;51.204;6.766;2023-02-01T11:53:23;101437.78;;;6.40;78.45
62051;BME280;48008;51.204;6.766;2023-02-01T11:56:08;101427.44;;;6.50;78.24
62051;BME280;48008;51.204;6.766;2023-02-01T11:58:54;101432.00;;;6.48;77.66
62051;BME280;48008;51.204;6.766;2023-02-01T12:01:52;101421.44;;;6.48;76.99
62051;BME280;48008;51.204;6.766;2023-02-01T12:05:17;101412.16;;;6.55;76.15
62051;BME280;48008;51.204;6.766;2023-02-01T12:13:54;101409.31;;;6.45;77.67
62051;BME280;48008;51.204;6.766;2023-02-01T12:16:37;101397.25;;;6.54;78.12
62051;BME280;48008;51.204;6.766;2023-02-01T12:22:40;101404.34;;;6.53;77.53
62051;BME280;48008;51.204;6.766;2023-02-01T12:25:21;101415.59;;;6.56;77.54
62051;BME280;48008;51.204;6.766;2023-02-01T12:28:21;101431.44;;;6.56;77.39
62051;BME280;48008;51.204;6.766;2023-02-01T12:31:10;101410.19;;;6.46;78.65
62051;BME280;48008;51.204;6.766;2023-02-01T12:37:31;101402.13;;;6.47;79.17
62051;BME280;48008;51.204;6.766;2023-02-01T12:39:56;101400.47;;;6.46;79.19
62051;BME280;48008;51.204;6.766;2023-02-01T12:42:34;101401.31;;;6.47;79.15
62051;BME280;48008;51.204;6.766;2023-02-01T12:45:12;101381.91;;;6.48;79.16
62051;BME280;48008;51.204;6.766;2023-02-01T12:47:49;101374.72;;;6.50;79.46
62051;BME280;48008;51.204;6.766;2023-02-01T12:50:25;101382.13;;;6.45;79.20
62051;BME280;48008;51.204;6.766;2023-02-01T12:53:06;101368.94;;;6.45;79.70
62051;BME280;48008;51.204;6.766;2023-02-01T12:55:38;101376.84;;;6.45;79.49
62051;BME280;48008;51.204;6.766;2023-02-01T12:58:13;101360.56;;;6.51;80.28
62051;BME280;48008;51.204;6.766;2023-02-01T13:00:47;101361.28;;;6.53;79.73
62051;BME280;48008;51.204;6.766;2023-02-01T13:03:29;101352.66;;;6.51;79.51
62051;BME280;48008;51.204;6.766;2023-02-01T13:06:02;101348.25;;;6.51;79.19
62051;BME280;48008;51.204;6.766;2023-02-01T13:08:42;101366.47;;;6.54;79.31
62051;BME280;48008;51.204;6.766;2023-02-01T13:11:15;101356.53;;;6.58;79.17
62051;BME280;48008;51.204;6.766;2023-02-01T13:16:30;101359.91;;;6.60;79.08
62051;BME280;48008;51.204;6.766;2023-02-01T13:19:20;101357.75;;;6.65;79.07
62051;BME280;48008;51.204;6.766;2023-02-01T13:21:51;101364.13;;;6.63;79.25
62051;BME280;48008;51.204;6.766;2023-02-01T13:24:41;101351.91;;;6.73;79.13
62051;BME280;48008;51.204;6.766;2023-02-01T13:27:12;101353.31;;;6.90;78.29
62051;BME280;48008;51.204;6.766;2023-02-01T13:30:03;101346.63;;;6.97;77.33
62051;BME280;48008;51.204;6.766;2023-02-01T13:32:57;101343.38;;;6.94;77.88
62051;BME280;48008;51.204;6.766;2023-02-01T13:38:43;101347.16;;;6.78;79.15
62051;BME280;48008;51.204;6.766;2023-02-01T13:44:11;101347.81;;;6.93;77.51
62051;BME280;48008;51.204;6.766;2023-02-01T13:46:41;101343.25;;;6.95;77.34
62051;BME280;48008;51.204;6.766;2023-02-01T13:49:20;101346.75;;;6.96;77.09
62051;BME280;48008;51.204;6.766;2023-02-01T13:51:50;101349.88;;;7.01;77.41
62051;BME280;48008;51.204;6.766;2023-02-01T13:54:36;101358.47;;;6.91;77.52
62051;BME280;48008;51.204;6.766;2023-02-01T13:57:06;101342.41;;;6.95;77.52
62051;BME280;48008;51.204;6.766;2023-02-01T13:59:49;101359.22;;;7.05;76.32
62051;BME280;48008;51.204;6.766;2023-02-01T14:03:01;101349.16;;;7.10;76.78
62051;BME280;48008;51.204;6.766;2023-02-01T14:10:57;101348.81;;;7.15;75.39
62051;BME280;48008;51.204;6.766;2023-02-01T14:13:41;101357.94;;;7.22;74.16
62051;BME280;48008;51.204;6.766;2023-02-01T14:16:12;101358.66;;;7.24;74.49